Time;durP1;ratioP1;P1;durP2;ratioP2;P2;SDS_P1;SDS_P2;PMS_P1;PMS_P2;Temp;Humidity;BMP_temperature;BMP_pressure;BME280_temperature;BME280_humidity;BME280_pressure;Samples;Min_cycle;Max_cycle;Signal;HPM_P1;HPM_P2
2022/06/27 00:00:46;;;;;;;7.93;1.60;;;;;;;;;;5092493;28;20431;-73
2022/06/27 00:03:13;;;;;;;11.45;2.10;;;;;;;;;;5093193;28;20451;-73
2022/06/27 00:05:39;;;;;;;7.97;1.73;;;;;;;;;;5091666;28;20522;-73
2022/06/27 00:08:06;;;;;;;5.60;1.00;;;;;;;;;;5092477;28;20112;-73
2022/06/27 00:10:32;;;;;;;7.55;1.98;;;;;;;;;;5092160;28;20087;-74
2022/06/27 00:12:59;;;;;;;11.10;1.58;;;;;;;;;;5092019;28;20511;-74
2022/06/27 00:15:25;;;;;;;7.03;1.63;;;;;;;;;;5092589;28;20076;-74
2022/06/27 00:17:52;;;;;;;10.82;1.40;;;;;;;;;;5092270;28;20051;-73
2022/06/27 00:20:19;;;;;;;6.60;2.08;;;;;;;;;;5092282;28;20105;-73
2022/06/27 00:22:45;;;;;;;10.15;2.10;;;;;;;;;;5092054;28;20052;-73
2022/06/27 00:25:12;;;;;;;5.70;1.73;;;;;;;;;;5092119;28;20063;-74
2022/06/27 00:27:38;;;;;;;9.70;1.75;;;;;;;;;;5091986;28;20089;-74
2022/06/27 00:30:05;;;;;;;8.00;1.73;;;;;;;;;;5091790;28;20492;-74
2022/06/27 00:32:32;;;;;;;8.70;1.55;;;;;;;;;;5091974;28;20079;-73
2022/06/27 00:34:59;;;;;;;8.45;1.85;;;;;;;;;;5092090;28;20044;-73
2022/06/27 00:37:26;;;;;;;8.50;1.30;;;;;;;;;;5092030;28;20048;-73
2022/06/27 00:39:52;;;;;;;8.20;1.98;;;;;;;;;;5091561;28;20052;-74
2022/06/27 00:42:19;;;;;;;8.27;1.35;;;;;;;;;;5091926;28;20048;-74
2022/06/27 00:44:45;;;;;;;6.13;1.38;;;;;;;;;;5091978;28;20052;-74
2022/06/27 00:47:12;;;;;;;10.32;1.50;;;;;;;;;;5091915;28;20051;-73
2022/06/27 00:49:39;;;;;;;10.35;2.17;;;;;;;;;;5091639;28;20579;-73
2022/06/27 00:52:07;;;;;;;10.07;1.63;;;;;;;;;;5090243;28;20071;-73
2022/06/27 00:54:37;;;;;;;9.82;1.65;;;;;;;;;;5091679;28;20093;-74
2022/06/27 00:57:04;;;;;;;7.57;1.13;;;;;;;;;;5091696;28;20076;-74
2022/06/27 00:59:31;;;;;;;8.05;1.67;;;;;;;;;;5091743;28;20090;-74
2022/06/27 01:01:57;;;;;;;6.93;1.70;;;;;;;;;;5091547;28;20093;-74
2022/06/27 01:04:24;;;;;;;8.10;1.60;;;;;;;;;;5091480;28;20059;-74
2022/06/27 01:06:54;;;;;;;6.53;1.52;;;;;;;;;;5091670;28;20495;-74
2022/06/27 01:09:21;;;;;;;7.53;2.00;;;;;;;;;;5091781;28;20109;-74
2022/06/27 01:11:48;;;;;;;7.32;1.50;;;;;;;;;;5091502;28;20089;-74
2022/06/27 01:14:14;;;;;;;6.70;1.53;;;;;;;;;;5091773;28;20109;-74
2022/06/27 01:16:41;;;;;;;6.60;1.90;;;;;;;;;;5094497;28;20113;-74
2022/06/27 01:19:12;;;;;;;6.53;1.97;;;;;;;;;;5095440;28;20051;-74
2022/06/27 01:21:48;;;;;;;8.30;1.88;;;;;;;;;;5095326;28;20560;-74
2022/06/27 01:24:16;;;;;;;7.28;1.10;;;;;;;;;;5095590;28;20047;-74
2022/06/27 01:26:43;;;;;;;6.63;1.63;;;;;;;;;;5095836;28;20044;-74
2022/06/27 01:29:09;;;;;;;13.02;2.05;;;;;;;;;;5095171;28;20044;-74
2022/06/27 01:31:36;;;;;;;9.23;1.70;;;;;;;;;;5095125;28;20409;-74
2022/06/27 01:34:03;;;;;;;9.63;1.53;;;;;;;;;;5095038;28;20059;-74
2022/06/27 01:36:41;;;;;;;10.10;1.83;;;;;;;;;;5095575;28;20288;-74
2022/06/27 01:39:12;;;;;;;5.97;1.38;;;;;;;;;;5095051;28;20098;-74
2022/06/27 01:41:40;;;;;;;8.90;1.65;;;;;;;;;;5094910;28;20112;-74
2022/06/27 01:44:07;;;;;;;7.25;1.50;;;;;;;;;;5094964;28;20044;-74
2022/06/27 01:46:41;;;;;;;6.25;1.20;;;;;;;;;;5094884;28;20082;-74
2022/06/27 01:49:08;;;;;;;8.45;1.25;;;;;;;;;;5094985;28;20040;-74
2022/06/27 01:51:36;;;;;;;5.00;1.02;;;;;;;;;;5094961;28;20076;-74
2022/06/27 01:54:03;;;;;;;6.07;1.13;;;;;;;;;;5094891;28;20071;-74
2022/06/27 01:56:30;;;;;;;5.03;1.10;;;;;;;;;;5093574;28;20109;-73
2022/06/27 01:58:58;;;;;;;6.57;1.38;;;;;;;;;;5094795;28;20055;-73
2022/06/27 02:01:28;;;;;;;5.22;1.33;;;;;;;;;;5094771;28;20040;-73
2022/06/27 02:03:55;;;;;;;5.53;1.17;;;;;;;;;;5094978;28;20047;-73
2022/06/27 02:06:22;;;;;;;8.77;2.25;;;;;;;;;;5094814;28;20058;-73
2022/06/27 02:08:50;;;;;;;1.63;0.82;;;;;;;;;;5094418;28;20048;-73
2022/06/27 02:11:17;;;;;;;8.93;1.38;;;;;;;;;;5094554;28;20056;-73
2022/06/27 02:13:44;;;;;;;6.40;0.80;;;;;;;;;;5094594;28;20036;-73
2022/06/27 02:16:12;;;;;;;7.35;1.00;;;;;;;;;;5094675;28;20550;-73
2022/06/27 02:18:39;;;;;;;3.75;1.08;;;;;;;;;;5094560;28;20052;-74
2022/06/27 02:21:19;;;;;;;3.70;1.05;;;;;;;;;;5094260;28;20094;-73
2022/06/27 02:23:46;;;;;;;3.40;1.20;;;;;;;;;;5094146;28;20047;-73
2022/06/27 02:26:14;;;;;;;2.43;0.70;;;;;;;;;;5094067;28;20090;-73
2022/06/27 02:28:41;;;;;;;3.65;0.70;;;;;;;;;;5093868;28;20679;-73
2022/06/27 02:31:08;;;;;;;4.38;0.70;;;;;;;;;;5093337;28;20545;-73
2022/06/27 02:33:35;;;;;;;3.30;1.00;;;;;;;;;;5093054;28;20381;-73
2022/06/27 02:36:03;;;;;;;3.65;0.80;;;;;;;;;;5092937;28;20079;-72
2022/06/27 02:38:29;;;;;;;5.18;0.80;;;;;;;;;;5092525;28;20080;-72
2022/06/27 02:40:57;;;;;;;5.93;0.60;;;;;;;;;;5093721;28;20056;-73
2022/06/27 02:43:25;;;;;;;3.50;0.70;;;;;;;;;;5093767;28;20085;-73
2022/06/27 02:45:53;;;;;;;5.93;0.80;;;;;;;;;;5093951;28;20105;-73
2022/06/27 02:48:19;;;;;;;;;;;;;;;;;;5094154;28;20091;-73
2022/06/27 02:50:48;;;;;;;3.53;0.60;;;;;;;;;;5094139;28;19965;-72
2022/06/27 02:53:18;;;;;;;5.65;0.90;;;;;;;;;;5093521;28;20066;-73
2022/06/27 02:55:45;;;;;;;3.30;0.60;;;;;;;;;;5093862;28;20071;-72
2022/06/27 02:58:18;;;;;;;4.50;0.88;;;;;;;;;;5093683;28;20077;-73
2022/06/27 03:00:47;;;;;;;5.32;0.80;;;;;;;;;;5093856;28;20047;-72
2022/06/27 03:03:15;;;;;;;5.28;0.82;;;;;;;;;;5093429;28;20492;-72
2022/06/27 03:05:55;;;;;;;3.83;0.50;;;;;;;;;;5093713;28;20052;-72
2022/06/27 03:08:21;;;;;;;4.18;0.65;;;;;;;;;;5093241;28;20503;-72
2022/06/27 03:10:48;;;;;;;3.20;0.60;;;;;;;;;;5093211;28;20052;-72
2022/06/27 03:13:15;;;;;;;4.30;0.73;;;;;;;;;;5093116;28;20048;-73
2022/06/27 03:15:41;;;;;;;3.05;0.98;;;;;;;;;;5093216;28;20071;-73
2022/06/27 03:18:11;;;;;;;3.35;0.55;;;;;;;;;;5093376;28;20079;-73
2022/06/27 03:20:38;;;;;;;4.63;0.77;;;;;;;;;;5093361;28;20047;-73
2022/06/27 03:23:04;;;;;;;2.47;0.57;;;;;;;;;;5093246;28;20105;-73
2022/06/27 03:25:31;;;;;;;2.58;1.02;;;;;;;;;;5092858;28;20552;-73
2022/06/27 03:27:57;;;;;;;3.03;0.50;;;;;;;;;;5093073;28;20052;-72
2022/06/27 03:30:24;;;;;;;2.20;0.65;;;;;;;;;;5092738;28;20487;-72
2022/06/27 03:32:50;;;;;;;3.50;0.47;;;;;;;;;;5092790;28;20102;-72
2022/06/27 03:35:16;;;;;;;5.60;0.60;;;;;;;;;;5092934;28;20097;-73
2022/06/27 03:37:43;;;;;;;7.07;0.80;;;;;;;;;;5093370;28;20426;-72
2022/06/27 03:40:10;;;;;;;2.50;0.60;;;;;;;;;;5091818;28;20071;-73
2022/06/27 03:42:36;;;;;;;2.33;0.60;;;;;;;;;;5093036;28;20496;-72
2022/06/27 03:45:03;;;;;;;2.53;0.88;;;;;;;;;;5092959;28;20056;-73
2022/06/27 03:47:29;;;;;;;3.03;1.05;;;;;;;;;;5092712;28;20101;-73
2022/06/27 03:50:02;;;;;;;4.85;0.55;;;;;;;;;;5092754;28;20101;-72
2022/06/27 03:52:28;;;;;;;3.97;0.60;;;;;;;;;;5092452;28;20159;-73
2022/06/27 03:54:55;;;;;;;2.25;0.75;;;;;;;;;;5092879;28;20105;-72
2022/06/27 03:57:21;;;;;;;1.90;0.45;;;;;;;;;;5092286;28;20040;-73
2022/06/27 03:59:48;;;;;;;3.05;0.63;;;;;;;;;;5092599;28;20109;-73
2022/06/27 04:02:16;;;;;;;1.13;0.22;;;;;;;;;;5091166;28;20537;-73
2022/06/27 04:04:42;;;;;;;4.00;0.52;;;;;;;;;;5092402;28;20127;-73
2022/06/27 04:07:09;;;;;;;3.60;0.60;;;;;;;;;;5092367;28;20090;-73
2022/06/27 04:09:35;;;;;;;3.50;0.30;;;;;;;;;;5092360;28;20048;-73
2022/06/27 04:12:02;;;;;;;3.45;0.80;;;;;;;;;;5092085;28;20499;-73
2022/06/27 04:14:28;;;;;;;2.00;0.30;;;;;;;;;;5091846;28;20063;-73
2022/06/27 04:16:55;;;;;;;2.35;0.55;;;;;;;;;;5092107;28;20086;-73
2022/06/27 04:19:21;;;;;;;3.70;0.65;;;;;;;;;;5091925;28;20076;-73
2022/06/27 04:21:48;;;;;;;3.67;1.30;;;;;;;;;;5091886;28;20127;-73
2022/06/27 04:24:14;;;;;;;2.08;0.40;;;;;;;;;;5092356;28;20044;-73
2022/06/27 04:26:41;;;;;;;1.58;0.50;;;;;;;;;;5092120;28;20098;-73
2022/06/27 04:29:07;;;;;;;1.65;0.60;;;;;;;;;;5092136;28;20052;-73
2022/06/27 04:31:34;;;;;;;4.05;0.60;;;;;;;;;;5092032;28;20047;-73
2022/06/27 04:34:01;;;;;;;1.63;0.60;;;;;;;;;;5092320;28;20048;-74
2022/06/27 04:36:28;;;;;;;2.97;0.88;;;;;;;;;;5091758;28;20048;-73
2022/06/27 04:38:55;;;;;;;1.60;0.30;;;;;;;;;;5091722;28;20036;-73
2022/06/27 04:41:22;;;;;;;2.55;0.38;;;;;;;;;;5091742;28;20059;-74
2022/06/27 04:43:49;;;;;;;4.40;0.32;;;;;;;;;;5091981;28;20048;-74
2022/06/27 04:46:16;;;;;;;3.22;0.50;;;;;;;;;;5091769;28;20493;-74
2022/06/27 04:48:46;;;;;;;2.25;0.38;;;;;;;;;;5091817;28;20048;-74
2022/06/27 04:51:13;;;;;;;2.90;0.52;;;;;;;;;;5096280;28;20101;-74
2022/06/27 04:53:40;;;;;;;1.85;0.32;;;;;;;;;;5098359;28;20048;-74
2022/06/27 04:56:08;;;;;;;3.70;0.95;;;;;;;;;;5098560;28;20090;-74
2022/06/27 04:58:35;;;;;;;1.40;0.68;;;;;;;;;;5098606;28;20052;-74
2022/06/27 05:01:01;;;;;;;3.33;0.50;;;;;;;;;;5098802;28;20082;-75
2022/06/27 05:03:28;;;;;;;2.40;0.30;;;;;;;;;;5098328;28;20534;-74
2022/06/27 05:05:55;;;;;;;2.67;0.52;;;;;;;;;;5098584;28;20048;-74
2022/06/27 05:08:21;;;;;;;2.92;0.50;;;;;;;;;;5098415;28;20453;-75
2022/06/27 05:10:47;;;;;;;4.47;0.93;;;;;;;;;;5098170;28;20492;-75
2022/06/27 05:13:14;;;;;;;2.25;0.60;;;;;;;;;;5098253;28;20097;-76
2022/06/27 05:15:40;;;;;;;4.15;0.63;;;;;;;;;;5098289;28;20090;-76
2022/06/27 05:18:07;;;;;;;2.13;0.35;;;;;;;;;;5098371;28;20048;-77
2022/06/27 05:20:34;;;;;;;2.88;0.40;;;;;;;;;;5098217;28;20048;-76
2022/06/27 05:23:00;;;;;;;2.55;0.40;;;;;;;;;;5097990;28;20512;-77
2022/06/27 05:25:27;;;;;;;1.02;0.40;;;;;;;;;;5098464;28;20048;-78
2022/06/27 05:27:56;;;;;;;0.60;0.20;;;;;;;;;;5098610;28;20052;-77
2022/06/27 05:30:22;;;;;;;1.83;0.40;;;;;;;;;;5097166;28;20055;-77
2022/06/27 05:32:49;;;;;;;2.13;0.38;;;;;;;;;;5097956;28;20047;-77
2022/06/27 05:35:15;;;;;;;2.10;0.32;;;;;;;;;;5097908;28;20540;-77
2022/06/27 05:37:45;;;;;;;1.15;0.40;;;;;;;;;;5097975;28;20048;-77
2022/06/27 05:40:11;;;;;;;1.63;0.35;;;;;;;;;;5098014;28;20055;-77
2022/06/27 05:42:38;;;;;;;1.35;0.40;;;;;;;;;;5098256;28;20047;-76
2022/06/27 05:45:04;;;;;;;2.05;0.38;;;;;;;;;;5098247;28;20450;-77
2022/06/27 05:47:31;;;;;;;2.55;0.52;;;;;;;;;;5097933;28;20086;-76
2022/06/27 05:49:59;;;;;;;1.47;0.50;;;;;;;;;;5098521;28;20458;-77
2022/06/27 05:52:26;;;;;;;2.28;0.60;;;;;;;;;;5097709;28;20073;-76
2022/06/27 05:54:54;;;;;;;1.55;0.32;;;;;;;;;;5098072;28;20098;-77
2022/06/27 05:57:20;;;;;;;;;;;;;;;;;;5096935;28;20570;-76
2022/06/27 05:59:47;;;;;;;1.25;0.50;;;;;;;;;;5097948;28;19978;-75
2022/06/27 06:02:13;;;;;;;2.17;0.55;;;;;;;;;;5095454;28;20105;-76
2022/06/27 06:04:40;;;;;;;1.50;0.38;;;;;;;;;;5094470;28;20044;-76
2022/06/27 06:07:07;;;;;;;1.15;0.98;;;;;;;;;;5094837;28;20048;-76
2022/06/27 06:09:33;;;;;;;2.53;0.47;;;;;;;;;;5094445;28;20461;-75
2022/06/27 06:12:00;;;;;;;0.63;0.40;;;;;;;;;;5094217;28;20385;-75
2022/06/27 06:14:28;;;;;;;1.00;0.40;;;;;;;;;;5094219;28;20089;-74
2022/06/27 06:16:55;;;;;;;2.28;0.50;;;;;;;;;;5094663;28;20048;-74
2022/06/27 06:19:21;;;;;;;2.95;0.70;;;;;;;;;;5093731;28;20052;-73
2022/06/27 06:21:48;;;;;;;4.53;0.88;;;;;;;;;;5094091;28;20071;-71
2022/06/27 06:24:15;;;;;;;3.45;0.47;;;;;;;;;;5093979;28;20048;-72
2022/06/27 06:26:41;;;;;;;3.13;0.50;;;;;;;;;;5092515;28;20052;-72
2022/06/27 06:29:15;;;;;;;2.10;0.68;;;;;;;;;;5093633;28;20087;-72
2022/06/27 06:31:43;;;;;;;1.48;0.38;;;;;;;;;;5093274;28;20060;-72
2022/06/27 06:34:11;;;;;;;3.20;1.15;;;;;;;;;;5093022;28;20055;-71
2022/06/27 06:36:38;;;;;;;1.75;0.60;;;;;;;;;;5092767;28;20093;-70
2022/06/27 06:39:05;;;;;;;2.28;0.40;;;;;;;;;;5092967;28;20090;-69
2022/06/27 06:41:32;;;;;;;4.03;0.85;;;;;;;;;;5093303;28;20056;-72
2022/06/27 06:43:59;;;;;;;4.73;0.60;;;;;;;;;;5093678;28;20466;-71
2022/06/27 06:46:27;;;;;;;2.50;0.60;;;;;;;;;;5093307;28;20113;-74
2022/06/27 06:49:02;;;;;;;1.30;0.70;;;;;;;;;;5093568;28;20048;-71
2022/06/27 06:51:31;;;;;;;0.95;0.40;;;;;;;;;;5093124;28;20052;-71
2022/06/27 06:53:58;;;;;;;2.65;0.70;;;;;;;;;;5093884;28;20083;-71
2022/06/27 06:56:25;;;;;;;2.53;0.60;;;;;;;;;;5093772;28;20064;-71
2022/06/27 06:58:51;;;;;;;1.90;0.50;;;;;;;;;;5092905;28;20047;-71
2022/06/27 07:01:18;;;;;;;1.48;0.30;;;;;;;;;;5093026;28;20106;-72
2022/06/27 07:03:44;;;;;;;2.93;0.80;;;;;;;;;;5092840;28;20094;-72
2022/06/27 07:06:12;;;;;;;4.25;0.70;;;;;;;;;;5092655;28;20106;-71
2022/06/27 07:08:40;;;;;;;1.00;0.40;;;;;;;;;;5093037;28;20060;-71
2022/06/27 07:11:07;;;;;;;2.05;0.63;;;;;;;;;;5093630;28;20066;-71
2022/06/27 07:13:34;;;;;;;2.40;0.70;;;;;;;;;;5093273;28;20404;-71
2022/06/27 07:16:00;;;;;;;2.47;0.55;;;;;;;;;;5093408;28;20326;-70
2022/06/27 07:18:27;;;;;;;4.17;0.47;;;;;;;;;;5093189;28;20048;-70
2022/06/27 07:20:54;;;;;;;5.13;0.63;;;;;;;;;;5093263;28;20044;-70
2022/06/27 07:23:21;;;;;;;3.03;0.30;;;;;;;;;;5092956;28;20048;-71
2022/06/27 07:25:47;;;;;;;2.08;0.35;;;;;;;;;;5092994;28;20495;-70
2022/06/27 07:28:16;;;;;;;2.22;0.40;;;;;;;;;;5092924;28;20060;-70
2022/06/27 07:30:43;;;;;;;1.48;0.40;;;;;;;;;;5092543;28;20102;-70
2022/06/27 07:33:11;;;;;;;;;;;;;;;;;;5091212;28;20044;-70
2022/06/27 07:35:37;;;;;;;3.03;0.90;;;;;;;;;;5088275;28;20264;-70
2022/06/27 07:38:04;;;;;;;3.73;0.70;;;;;;;;;;5092423;28;20052;-71
2022/06/27 07:40:33;;;;;;;2.25;0.52;;;;;;;;;;5092024;28;20052;-71
2022/06/27 07:43:00;;;;;;;2.38;0.40;;;;;;;;;;5092812;28;20468;-70
2022/06/27 07:45:27;;;;;;;2.28;0.60;;;;;;;;;;5092918;28;20510;-70
2022/06/27 07:47:54;;;;;;;3.00;0.40;;;;;;;;;;5092544;28;20494;-70
2022/06/27 07:50:37;;;;;;;1.27;0.52;;;;;;;;;;5092508;28;20052;-70
2022/06/27 07:53:14;;;;;;;3.90;0.88;;;;;;;;;;5092387;28;20040;-69
2022/06/27 07:55:49;;;;;;;3.10;0.70;;;;;;;;;;5092373;28;20491;-69
2022/06/27 07:58:19;;;;;;;2.60;0.38;;;;;;;;;;5091957;28;20066;-69
2022/06/27 08:00:50;;;;;;;4.15;0.50;;;;;;;;;;5091984;28;20400;-69
2022/06/27 08:03:38;;;;;;;2.80;0.68;;;;;;;;;;5091952;28;20076;-69
2022/06/27 08:06:08;;;;;;;3.25;0.73;;;;;;;;;;5092121;28;20039;-69
2022/06/27 08:08:38;;;;;;;2.58;0.65;;;;;;;;;;5092038;28;20044;-69
2022/06/27 08:11:05;;;;;;;7.38;0.60;;;;;;;;;;5091877;28;20093;-70
2022/06/27 08:13:32;;;;;;;2.20;0.50;;;;;;;;;;5086608;28;20131;-69
2022/06/27 08:15:59;;;;;;;3.33;0.55;;;;;;;;;;5090872;28;20044;-69
2022/06/27 08:18:27;;;;;;;1.08;0.65;;;;;;;;;;5090263;28;20052;-69
2022/06/27 08:20:54;;;;;;;1.55;0.43;;;;;;;;;;5087265;28;20102;-70
2022/06/27 08:23:20;;;;;;;2.28;0.52;;;;;;;;;;5091198;28;20063;-70
2022/06/27 08:25:47;;;;;;;3.65;0.68;;;;;;;;;;5090732;28;20068;-70
2022/06/27 08:28:15;;;;;;;1.20;0.57;;;;;;;;;;5090732;28;20044;-70
2022/06/27 08:30:42;;;;;;;2.03;0.43;;;;;;;;;;5089764;28;20117;-69
2022/06/27 08:33:11;;;;;;;3.90;0.70;;;;;;;;;;5085860;28;20407;-68
2022/06/27 08:35:44;;;;;;;2.97;0.75;;;;;;;;;;5091191;28;20048;-68
2022/06/27 08:38:10;;;;;;;1.15;0.15;;;;;;;;;;5091215;28;20085;-68
2022/06/27 08:40:37;;;;;;;2.10;0.88;;;;;;;;;;5090689;28;20086;-69
2022/06/27 08:43:03;;;;;;;1.42;0.40;;;;;;;;;;5091278;28;20434;-70
2022/06/27 08:45:30;;;;;;;1.65;0.30;;;;;;;;;;5091120;28;20052;-70
2022/06/27 08:48:06;;;;;;;2.10;0.30;;;;;;;;;;5091082;28;20052;-69
2022/06/27 08:50:34;;;;;;;0.85;0.30;;;;;;;;;;5091033;28;20056;-69
2022/06/27 08:53:01;;;;;;;0.95;0.32;;;;;;;;;;5091133;28;20052;-69
2022/06/27 08:55:30;;;;;;;2.28;0.50;;;;;;;;;;5089574;28;20441;-71
2022/06/27 08:58:06;;;;;;;0.98;0.40;;;;;;;;;;5091309;28;20044;-70
2022/06/27 09:00:34;;;;;;;0.98;0.40;;;;;;;;;;5091165;28;20048;-70
2022/06/27 09:03:00;;;;;;;2.10;0.30;;;;;;;;;;5091351;28;20105;-70
2022/06/27 09:05:29;;;;;;;1.48;0.30;;;;;;;;;;5090887;28;20492;-70
2022/06/27 09:07:56;;;;;;;2.78;0.40;;;;;;;;;;5090923;28;20568;-69
2022/06/27 09:10:29;;;;;;;2.25;0.30;;;;;;;;;;5091013;28;20058;-69
2022/06/27 09:13:04;;;;;;;1.80;0.50;;;;;;;;;;5091004;28;20066;-70
2022/06/27 09:15:49;;;;;;;2.33;0.80;;;;;;;;;;5091148;28;20086;-69
2022/06/27 09:18:18;;;;;;;2.80;0.60;;;;;;;;;;5090871;28;20062;-69
2022/06/27 09:20:49;;;;;;;1.98;0.40;;;;;;;;;;5090723;28;20565;-69
2022/06/27 09:23:35;;;;;;;3.10;0.55;;;;;;;;;;5090806;28;20113;-68
2022/06/27 09:26:04;;;;;;;2.75;0.55;;;;;;;;;;5091070;28;20545;-68
2022/06/27 09:28:45;;;;;;;2.80;0.65;;;;;;;;;;5090709;28;20044;-67
2022/06/27 09:31:32;;;;;;;2.88;0.75;;;;;;;;;;5077593;28;20089;-69
2022/06/27 09:33:59;;;;;;;4.60;1.27;;;;;;;;;;5087623;28;20052;-68
2022/06/27 09:36:27;;;;;;;3.40;0.88;;;;;;;;;;5090676;28;20101;-69
2022/06/27 09:38:54;;;;;;;2.63;0.98;;;;;;;;;;5093800;28;20411;-69
2022/06/27 09:41:21;;;;;;;2.58;0.70;;;;;;;;;;5094298;28;20104;-69
2022/06/27 09:43:48;;;;;;;;;;;;;;;;;;5094854;28;20083;-69
2022/06/27 09:46:15;;;;;;;2.63;0.93;;;;;;;;;;5093056;28;19922;-69
2022/06/27 09:48:44;;;;;;;3.42;0.80;;;;;;;;;;5093048;28;20483;-68
2022/06/27 09:51:15;;;;;;;1.80;0.80;;;;;;;;;;5094485;28;20047;-70
2022/06/27 09:53:47;;;;;;;2.03;0.85;;;;;;;;;;5093282;28;20488;-69
2022/06/27 09:56:15;;;;;;;3.58;0.63;;;;;;;;;;5094377;28;20036;-69
2022/06/27 09:58:41;;;;;;;3.20;0.60;;;;;;;;;;5092789;28;20086;-69
2022/06/27 10:01:28;;;;;;;3.63;0.82;;;;;;;;;;5094309;28;20131;-70
2022/06/27 10:03:57;;;;;;;1.42;0.50;;;;;;;;;;5094269;28;20472;-69
2022/06/27 10:06:24;;;;;;;1.85;0.70;;;;;;;;;;5093914;28;20093;-68
2022/06/27 10:08:51;;;;;;;4.15;0.90;;;;;;;;;;5094178;28;20052;-68
2022/06/27 10:11:23;;;;;;;3.33;0.40;;;;;;;;;;5094037;28;20048;-68
2022/06/27 10:14:08;;;;;;;2.45;0.70;;;;;;;;;;5093270;28;20039;-69
2022/06/27 10:16:59;;;;;;;5.43;0.98;;;;;;;;;;5093797;28;20056;-68
2022/06/27 10:19:27;;;;;;;3.00;0.70;;;;;;;;;;5093760;28;20123;-68
2022/06/27 10:21:54;;;;;;;3.67;0.80;;;;;;;;;;5093216;28;20090;-68
2022/06/27 10:24:29;;;;;;;5.15;0.93;;;;;;;;;;5093273;28;20510;-68
2022/06/27 10:26:57;;;;;;;1.98;0.47;;;;;;;;;;5091664;28;20495;-68
2022/06/27 10:29:26;;;;;;;4.07;0.50;;;;;;;;;;5083132;28;20063;-68
2022/06/27 10:31:53;;;;;;;3.22;0.60;;;;;;;;;;5093751;28;20055;-68
2022/06/27 10:34:38;;;;;;;2.17;0.50;;;;;;;;;;5090665;28;20051;-69
2022/06/27 10:37:24;;;;;;;2.38;0.50;;;;;;;;;;5093230;28;20051;-69
2022/06/27 10:39:51;;;;;;;2.38;0.50;;;;;;;;;;5093377;28;20048;-69
2022/06/27 10:42:49;;;;;;;2.40;0.50;;;;;;;;;;5092294;28;20044;-69
2022/06/27 10:45:19;;;;;;;0.85;0.40;;;;;;;;;;5092383;28;20052;-69
2022/06/27 10:47:46;;;;;;;3.72;0.63;;;;;;;;;;5091071;28;20510;-69
2022/06/27 10:50:13;;;;;;;2.50;0.50;;;;;;;;;;5093436;28;20048;-69
2022/06/27 10:52:43;;;;;;;2.45;0.68;;;;;;;;;;5092966;28;20092;-69
2022/06/27 10:55:31;;;;;;;2.08;0.52;;;;;;;;;;5091362;28;20040;-69
2022/06/27 10:57:58;;;;;;;1.17;0.40;;;;;;;;;;5092774;28;20384;-69
2022/06/27 11:00:37;;;;;;;2.75;0.90;;;;;;;;;;5092771;28;20076;-69
2022/06/27 11:03:04;;;;;;;2.17;0.50;;;;;;;;;;5092861;28;20078;-70
2022/06/27 11:05:50;;;;;;;2.92;0.88;;;;;;;;;;5093099;28;20487;-69
2022/06/27 11:08:17;;;;;;;2.83;0.38;;;;;;;;;;5093174;28;20101;-68
2022/06/27 11:10:44;;;;;;;2.28;0.40;;;;;;;;;;5093044;28;20132;-69
2022/06/27 11:13:10;;;;;;;4.47;0.75;;;;;;;;;;5092949;28;20079;-70
2022/06/27 11:15:49;;;;;;;2.72;0.50;;;;;;;;;;5092326;28;20044;-71
2022/06/27 11:18:15;;;;;;;1.15;0.40;;;;;;;;;;5092370;28;20075;-71
2022/06/27 11:20:43;;;;;;;2.57;0.60;;;;;;;;;;5090955;28;20044;-70
2022/06/27 11:23:11;;;;;;;2.65;0.40;;;;;;;;;;5091204;28;20086;-71
2022/06/27 11:25:41;;;;;;;;;;;;;;;;;;5092699;28;20048;-71
2022/06/27 11:33:39;;;;;;;3.42;0.80;;;;;;;;;;5090125;28;20134;-71
2022/06/27 11:36:06;;;;;;;2.95;0.63;;;;;;;;;;5091572;28;20094;-71
2022/06/27 11:38:41;;;;;;;3.15;0.60;;;;;;;;;;5092086;28;20048;-71
2022/06/27 11:41:10;;;;;;;1.98;0.45;;;;;;;;;;5091692;28;20056;-71
2022/06/27 11:43:46;;;;;;;3.65;0.65;;;;;;;;;;5092462;28;20048;-73
2022/06/27 11:46:25;;;;;;;3.30;0.73;;;;;;;;;;5092293;28;20052;-72
2022/06/27 11:48:56;;;;;;;2.65;0.63;;;;;;;;;;5092029;28;20079;-71
2022/06/27 11:51:25;;;;;;;2.17;0.73;;;;;;;;;;5090232;28;20088;-72
2022/06/27 11:53:55;;;;;;;2.55;0.60;;;;;;;;;;5092214;28;20449;-72
2022/06/27 11:56:25;;;;;;;2.50;0.88;;;;;;;;;;5091799;28;20044;-72
2022/06/27 11:58:52;;;;;;;2.50;1.02;;;;;;;;;;5091795;28;20066;-71
2022/06/27 12:01:19;;;;;;;;;;;;;;;;;;5090133;28;20453;-71
2022/06/27 12:03:45;;;;;;;;;;;;;;;;;;5091784;28;20432;-72
2022/06/27 12:06:11;;;;;;;;;;;;;;;;;;5092111;28;19920;-71
2022/06/27 12:08:57;;;;;;;1.58;0.47;;;;;;;;;;5092072;28;19966;-71
2022/06/27 12:11:28;;;;;;;2.83;1.30;;;;;;;;;;5092231;28;20098;-72
2022/06/27 12:14:01;;;;;;;4.50;1.70;;;;;;;;;;5091693;28;20055;-71
2022/06/27 12:16:27;;;;;;;5.75;2.13;;;;;;;;;;5091844;28;20052;-72
2022/06/27 12:18:54;;;;;;;4.32;1.05;;;;;;;;;;5091850;28;20511;-71
2022/06/27 12:21:24;;;;;;;3.25;1.00;;;;;;;;;;5090258;28;20496;-71
2022/06/27 12:23:51;;;;;;;3.10;0.73;;;;;;;;;;5091487;28;20048;-71
2022/06/27 12:26:18;;;;;;;4.82;2.00;;;;;;;;;;5075788;28;20056;-70
2022/06/27 12:28:44;;;;;;;3.17;0.68;;;;;;;;;;5091502;28;20105;-70
2022/06/27 12:31:11;;;;;;;2.45;0.47;;;;;;;;;;5089951;28;20557;-72
2022/06/27 12:33:38;;;;;;;1.98;0.50;;;;;;;;;;5087994;28;20103;-70
2022/06/27 12:36:04;;;;;;;7.38;3.45;;;;;;;;;;5091630;28;20105;-70
2022/06/27 12:38:31;;;;;;;4.57;1.13;;;;;;;;;;5090075;28;20449;-70
2022/06/27 12:41:13;;;;;;;2.05;0.70;;;;;;;;;;5089904;28;20075;-71
2022/06/27 12:43:46;;;;;;;1.85;0.40;;;;;;;;;;5091254;28;20101;-71
2022/06/27 12:46:14;;;;;;;3.25;0.82;;;;;;;;;;5091287;28;20043;-70
2022/06/27 12:48:42;;;;;;;1.40;0.47;;;;;;;;;;5090871;28;20052;-72
2022/06/27 12:51:08;;;;;;;;;;;;;;;;;;5090830;28;20483;-70
2022/06/27 12:53:34;;;;;;;;;;;;;;;;;;5090525;28;19924;-70
2022/06/27 12:56:02;;;;;;;1.80;0.30;;;;;;;;;;5090998;28;20321;-71
2022/06/27 12:58:28;;;;;;;2.60;0.55;;;;;;;;;;5089821;28;20047;-71
2022/06/27 13:00:55;;;;;;;2.25;0.50;;;;;;;;;;5090563;28;20048;-71
2022/06/27 13:03:22;;;;;;;;;;;;;;;;;;5091333;28;20109;-71
2022/06/27 13:05:49;;;;;;;4.05;0.65;;;;;;;;;;5090990;28;20037;-73
2022/06/27 13:08:16;;;;;;;2.67;0.80;;;;;;;;;;5090987;28;20519;-73
2022/06/27 13:10:43;;;;;;;2.38;0.63;;;;;;;;;;5091162;28;20048;-73
2022/06/27 13:13:09;;;;;;;;;;;;;;;;;;5095618;28;20086;-73
2022/06/27 13:15:36;;;;;;;;;;;;;;;;;;5095301;28;20488;-73
2022/06/27 13:18:04;;;;;;;1.83;0.75;;;;;;;;;;5095322;28;19974;-72
2022/06/27 13:20:30;;;;;;;3.38;0.40;;;;;;;;;;5095138;28;20144;-72
2022/06/27 13:22:57;;;;;;;;;;;;;;;;;;5094471;28;20044;-72
2022/06/27 13:25:23;;;;;;;;;;;;;;;;;;5090482;28;19982;-72
2022/06/27 13:27:49;;;;;;;2.58;0.60;;;;;;;;;;5093326;28;20433;-72
2022/06/27 13:30:17;;;;;;;4.40;0.80;;;;;;;;;;5092452;28;20449;-72
2022/06/27 13:32:43;;;;;;;2.67;0.73;;;;;;;;;;5094199;28;20090;-72
2022/06/27 13:35:10;;;;;;;;;;;;;;;;;;5090289;28;20067;-72
2022/06/27 13:37:38;;;;;;;2.90;0.50;;;;;;;;;;5093616;28;20404;-71
2022/06/27 13:40:04;;;;;;;;;;;;;;;;;;5091493;28;20044;-71
2022/06/27 13:42:32;;;;;;;2.25;0.55;;;;;;;;;;5094433;28;19924;-70
2022/06/27 13:44:58;;;;;;;2.60;0.55;;;;;;;;;;5094710;28;20140;-70
2022/06/27 13:47:25;;;;;;;3.90;0.63;;;;;;;;;;5093241;28;20573;-71
2022/06/27 13:49:54;;;;;;;1.65;0.20;;;;;;;;;;5094162;28;20134;-71
2022/06/27 13:52:21;;;;;;;1.80;0.45;;;;;;;;;;5094056;28;20052;-70
2022/06/27 13:54:48;;;;;;;2.28;0.60;;;;;;;;;;5094173;28;20569;-70
2022/06/27 13:57:14;;;;;;;;;;;;;;;;;;5094269;28;20484;-70
2022/06/27 13:59:47;;;;;;;2.10;0.88;;;;;;;;;;5093922;28;19969;-71
2022/06/27 14:02:13;;;;;;;1.23;0.40;;;;;;;;;;5093874;28;20048;-72
2022/06/27 14:04:40;;;;;;;2.05;0.73;;;;;;;;;;5093281;28;20404;-71
2022/06/27 14:09:52;;;;;;;2.72;0.57;;;;;;;;;;5093717;28;20043;-71
2022/06/27 14:12:18;;;;;;;2.47;0.50;;;;;;;;;;5093392;28;20052;-71
2022/06/27 14:14:45;;;;;;;2.95;0.70;;;;;;;;;;5091921;28;20083;-71
2022/06/27 14:17:11;;;;;;;3.58;0.93;;;;;;;;;;5094242;28;20048;-71
2022/06/27 14:19:38;;;;;;;3.03;1.02;;;;;;;;;;5093178;28;20479;-72
2022/06/27 14:22:04;;;;;;;6.60;1.25;;;;;;;;;;5094654;28;20097;-72
2022/06/27 14:24:31;;;;;;;2.40;0.70;;;;;;;;;;5086453;28;20098;-71
2022/06/27 14:26:58;;;;;;;;;;;;;;;;;;5073943;28;20500;-70
2022/06/27 14:29:24;;;;;;;;;;;;;;;;;;5073884;28;20433;-70
2022/06/27 14:31:51;;;;;;;2.20;0.80;;;;;;;;;;5073515;28;19924;-70
2022/06/27 14:34:18;;;;;;;3.75;0.70;;;;;;;;;;5073631;28;20056;-70
2022/06/27 14:36:47;;;;;;;;;;;;;;;;;;5093724;28;20040;-71
2022/06/27 14:39:14;;;;;;;3.38;0.60;;;;;;;;;;5093242;28;20392;-70
2022/06/27 14:41:41;;;;;;;2.15;0.63;;;;;;;;;;5092920;28;20101;-69
2022/06/27 14:44:08;;;;;;;1.58;0.40;;;;;;;;;;5092834;28;20039;-70
2022/06/27 14:46:35;;;;;;;2.72;0.77;;;;;;;;;;5092878;28;20044;-70
2022/06/27 14:49:02;;;;;;;2.22;1.00;;;;;;;;;;5093058;28;20059;-71
2022/06/27 14:51:28;;;;;;;1.42;0.63;;;;;;;;;;5093034;28;20105;-70
2022/06/27 14:53:55;;;;;;;;;;;;;;;;;;5093669;28;20048;-70
2022/06/27 14:56:24;;;;;;;2.33;0.60;;;;;;;;;;5092773;28;19924;-70
2022/06/27 14:58:50;;;;;;;2.13;0.57;;;;;;;;;;5093312;28;20048;-70
2022/06/27 15:01:17;;;;;;;4.53;0.60;;;;;;;;;;5092963;28;20078;-70
2022/06/27 15:03:44;;;;;;;4.28;1.10;;;;;;;;;;5093191;28;20047;-70